sensor_id;sensor_type;location;lat;lon;timestamp;temperature;humidity
51021;DHT22;38907;45.562;8.856;2023-09-07T00:02:35;20.80;99.90
51021;DHT22;38907;45.562;8.856;2023-09-07T00:07:37;20.80;99.90
51021;DHT22;38907;45.562;8.856;2023-09-07T00:12:41;20.80;99.90
51021;DHT22;38907;45.562;8.856;2023-09-07T00:17:42;20.80;99.90
51021;DHT22;38907;45.562;8.856;2023-09-07T00:22:45;20.90;99.90
51021;DHT22;38907;45.562;8.856;2023-09-07T00:27:48;21.00;99.90
51021;DHT22;38907;45.562;8.856;2023-09-07T00:32:50;20.80;99.90
51021;DHT22;38907;45.562;8.856;2023-09-07T00:37:51;20.60;99.90
51021;DHT22;38907;45.562;8.856;2023-09-07T00:42:56;20.60;99.90
51021;DHT22;38907;45.562;8.856;2023-09-07T00:47:58;20.40;99.90
51021;DHT22;38907;45.562;8.856;2023-09-07T00:53:00;20.40;99.90
51021;DHT22;38907;45.562;8.856;2023-09-07T00:58:05;20.40;99.90
51021;DHT22;38907;45.562;8.856;2023-09-07T01:03:07;20.40;99.90
51021;DHT22;38907;45.562;8.856;2023-09-07T01:08:15;20.40;99.90
51021;DHT22;38907;45.562;8.856;2023-09-07T01:13:21;20.50;99.90
51021;DHT22;38907;45.562;8.856;2023-09-07T01:18:23;20.30;99.90
51021;DHT22;38907;45.562;8.856;2023-09-07T01:23:26;20.10;99.90
51021;DHT22;38907;45.562;8.856;2023-09-07T01:28:28;20.20;99.90
51021;DHT22;38907;45.562;8.856;2023-09-07T01:33:31;20.00;99.90
51021;DHT22;38907;45.562;8.856;2023-09-07T01:38:34;20.00;99.90
51021;DHT22;38907;45.562;8.856;2023-09-07T01:43:37;20.00;99.90
51021;DHT22;38907;45.562;8.856;2023-09-07T01:48:39;19.90;99.90
51021;DHT22;38907;45.562;8.856;2023-09-07T01:53:46;19.90;99.90
51021;DHT22;38907;45.562;8.856;2023-09-07T01:58:48;20.10;99.90
51021;DHT22;38907;45.562;8.856;2023-09-07T02:03:50;20.00;99.90
51021;DHT22;38907;45.562;8.856;2023-09-07T02:08:53;19.80;99.90
51021;DHT22;38907;45.562;8.856;2023-09-07T02:13:55;19.80;99.90
51021;DHT22;38907;45.562;8.856;2023-09-07T02:19:01;19.80;99.90
51021;DHT22;38907;45.562;8.856;2023-09-07T02:24:05;19.70;99.90
51021;DHT22;38907;45.562;8.856;2023-09-07T02:29:07;19.60;99.90
51021;DHT22;38907;45.562;8.856;2023-09-07T02:34:09;19.70;99.90
51021;DHT22;38907;45.562;8.856;2023-09-07T02:39:12;19.70;99.90
51021;DHT22;38907;45.562;8.856;2023-09-07T02:44:14;19.60;99.90
51021;DHT22;38907;45.562;8.856;2023-09-07T02:49:16;19.70;99.90
51021;DHT22;38907;45.562;8.856;2023-09-07T02:54:19;19.70;99.90
51021;DHT22;38907;45.562;8.856;2023-09-07T02:59:21;19.70;99.90
51021;DHT22;38907;45.562;8.856;2023-09-07T03:04:23;19.40;99.90
51021;DHT22;38907;45.562;8.856;2023-09-07T03:09:26;19.20;99.90
51021;DHT22;38907;45.562;8.856;2023-09-07T03:14:28;19.20;99.90
51021;DHT22;38907;45.562;8.856;2023-09-07T03:19:30;19.40;99.90
51021;DHT22;38907;45.562;8.856;2023-09-07T03:24:34;19.40;99.90
51021;DHT22;38907;45.562;8.856;2023-09-07T03:29:36;19.30;99.90
51021;DHT22;38907;45.562;8.856;2023-09-07T03:34:39;19.30;99.90
51021;DHT22;38907;45.562;8.856;2023-09-07T03:39:42;18.90;99.90
51021;DHT22;38907;45.562;8.856;2023-09-07T03:44:44;18.80;99.90
51021;DHT22;38907;45.562;8.856;2023-09-07T03:49:46;18.90;99.90
51021;DHT22;38907;45.562;8.856;2023-09-07T03:54:49;19.10;99.90
51021;DHT22;38907;45.562;8.856;2023-09-07T03:59:51;19.00;99.90
51021;DHT22;38907;45.562;8.856;2023-09-07T04:04:54;19.00;99.90
51021;DHT22;38907;45.562;8.856;2023-09-07T04:09:57;18.80;99.90
51021;DHT22;38907;45.562;8.856;2023-09-07T09:33:32;24.80;99.90
51021;DHT22;38907;45.562;8.856;2023-09-07T09:38:36;24.80;99.90
51021;DHT22;38907;45.562;8.856;2023-09-07T09:43:40;24.90;99.90
51021;DHT22;38907;45.562;8.856;2023-09-07T09:48:42;24.90;99.90
51021;DHT22;38907;45.562;8.856;2023-09-07T09:53:45;25.00;99.90
51021;DHT22;38907;45.562;8.856;2023-09-07T09:58:48;25.10;99.90
51021;DHT22;38907;45.562;8.856;2023-09-07T10:03:50;25.20;99.90
51021;DHT22;38907;45.562;8.856;2023-09-07T10:08:57;25.20;99.90
51021;DHT22;38907;45.562;8.856;2023-09-07T10:14:02;25.10;99.90
51021;DHT22;38907;45.562;8.856;2023-09-07T10:19:14;25.10;99.90
51021;DHT22;38907;45.562;8.856;2023-09-07T10:24:25;25.30;99.90
51021;DHT22;38907;45.562;8.856;2023-09-07T10:29:39;25.10;99.90
51021;DHT22;38907;45.562;8.856;2023-09-07T10:34:42;25.20;99.90
51021;DHT22;38907;45.562;8.856;2023-09-07T10:39:45;25.20;99.90
51021;DHT22;38907;45.562;8.856;2023-09-07T10:44:48;25.60;99.90
51021;DHT22;38907;45.562;8.856;2023-09-07T10:49:50;25.60;99.90
51021;DHT22;38907;45.562;8.856;2023-09-07T10:54:58;25.70;99.90
51021;DHT22;38907;45.562;8.856;2023-09-07T11:00:02;25.90;99.90
51021;DHT22;38907;45.562;8.856;2023-09-07T11:05:05;25.80;99.90
51021;DHT22;38907;45.562;8.856;2023-09-07T11:10:08;25.60;99.90
51021;DHT22;38907;45.562;8.856;2023-09-07T11:15:12;25.70;99.90
51021;DHT22;38907;45.562;8.856;2023-09-07T11:20:14;26.00;99.90
51021;DHT22;38907;45.562;8.856;2023-09-07T11:25:17;26.00;99.90
51021;DHT22;38907;45.562;8.856;2023-09-07T11:30:20;26.20;99.90
51021;DHT22;38907;45.562;8.856;2023-09-07T11:35:22;26.20;99.90
51021;DHT22;38907;45.562;8.856;2023-09-07T11:40:24;26.40;99.90
51021;DHT22;38907;45.562;8.856;2023-09-07T11:45:27;26.20;99.90
51021;DHT22;38907;45.562;8.856;2023-09-07T11:50:29;26.20;99.90
51021;DHT22;38907;45.562;8.856;2023-09-07T11:55:31;26.20;99.90
51021;DHT22;38907;45.562;8.856;2023-09-07T12:00:34;26.30;99.90
51021;DHT22;38907;45.562;8.856;2023-09-07T12:05:37;26.30;99.90
51021;DHT22;38907;45.562;8.856;2023-09-07T12:10:40;26.30;99.90
51021;DHT22;38907;45.562;8.856;2023-09-07T12:15:43;26.50;99.90
51021;DHT22;38907;45.562;8.856;2023-09-07T12:20:45;26.60;99.90
51021;DHT22;38907;45.562;8.856;2023-09-07T12:25:47;26.60;99.90
51021;DHT22;38907;45.562;8.856;2023-09-07T12:30:53;26.70;99.90
51021;DHT22;38907;45.562;8.856;2023-09-07T12:35:54;26.70;99.90
51021;DHT22;38907;45.562;8.856;2023-09-07T12:40:57;26.70;99.90
51021;DHT22;38907;45.562;8.856;2023-09-07T12:46:00;26.70;99.90
51021;DHT22;38907;45.562;8.856;2023-09-07T12:51:02;26.70;99.90
51021;DHT22;38907;45.562;8.856;2023-09-07T12:56:04;26.70;99.90
51021;DHT22;38907;45.562;8.856;2023-09-07T13:01:07;26.90;99.90
51021;DHT22;38907;45.562;8.856;2023-09-07T13:06:10;26.90;99.90
51021;DHT22;38907;45.562;8.856;2023-09-07T13:11:12;27.10;99.90
51021;DHT22;38907;45.562;8.856;2023-09-07T13:16:16;27.20;99.90
51021;DHT22;38907;45.562;8.856;2023-09-07T13:21:17;27.30;99.90
51021;DHT22;38907;45.562;8.856;2023-09-07T13:26:20;27.30;99.90
51021;DHT22;38907;45.562;8.856;2023-09-07T13:31:23;27.30;99.90
51021;DHT22;38907;45.562;8.856;2023-09-07T13:36:25;27.30;99.90
51021;DHT22;38907;45.562;8.856;2023-09-07T13:41:27;27.30;99.70
51021;DHT22;38907;45.562;8.856;2023-09-07T13:46:30;27.30;99.40
51021;DHT22;38907;45.562;8.856;2023-09-07T13:51:33;27.20;99.40
51021;DHT22;38907;45.562;8.856;2023-09-07T13:56:39;27.30;99.50
51021;DHT22;38907;45.562;8.856;2023-09-07T14:01:44;27.30;99.10
51021;DHT22;38907;45.562;8.856;2023-09-07T14:06:46;27.30;98.20
51021;DHT22;38907;45.562;8.856;2023-09-07T14:11:48;27.30;98.70
51021;DHT22;38907;45.562;8.856;2023-09-07T14:16:52;27.40;99.70
51021;DHT22;38907;45.562;8.856;2023-09-07T14:21:57;27.50;99.90
51021;DHT22;38907;45.562;8.856;2023-09-07T14:26:59;27.40;99.90
51021;DHT22;38907;45.562;8.856;2023-09-07T14:32:03;27.50;99.90
51021;DHT22;38907;45.562;8.856;2023-09-07T14:37:05;27.50;99.40
51021;DHT22;38907;45.562;8.856;2023-09-07T14:42:08;27.50;99.70
51021;DHT22;38907;45.562;8.856;2023-09-07T14:47:16;27.40;99.70
51021;DHT22;38907;45.562;8.856;2023-09-07T14:52:17;27.50;99.20
51021;DHT22;38907;45.562;8.856;2023-09-07T14:57:19;27.50;99.30
51021;DHT22;38907;45.562;8.856;2023-09-07T15:02:23;27.50;99.70
51021;DHT22;38907;45.562;8.856;2023-09-07T15:07:25;27.50;98.70
51021;DHT22;38907;45.562;8.856;2023-09-07T15:12:27;27.50;99.10
51021;DHT22;38907;45.562;8.856;2023-09-07T15:17:30;27.60;98.90
51021;DHT22;38907;45.562;8.856;2023-09-07T15:22:32;27.60;99.40
51021;DHT22;38907;45.562;8.856;2023-09-07T15:27:34;27.70;99.50
51021;DHT22;38907;45.562;8.856;2023-09-07T15:32:37;27.70;99.30
51021;DHT22;38907;45.562;8.856;2023-09-07T15:37:39;27.70;99.10
51021;DHT22;38907;45.562;8.856;2023-09-07T15:42:42;27.60;99.10
51021;DHT22;38907;45.562;8.856;2023-09-07T15:47:45;27.60;99.40
51021;DHT22;38907;45.562;8.856;2023-09-07T15:52:48;27.70;98.50
51021;DHT22;38907;45.562;8.856;2023-09-07T15:57:51;27.70;98.00
51021;DHT22;38907;45.562;8.856;2023-09-07T16:02:54;27.70;97.90
51021;DHT22;38907;45.562;8.856;2023-09-07T16:07:55;27.60;99.30
51021;DHT22;38907;45.562;8.856;2023-09-07T16:12:57;27.60;99.10
51021;DHT22;38907;45.562;8.856;2023-09-07T16:18:00;27.60;98.90
51021;DHT22;38907;45.562;8.856;2023-09-07T16:23:02;27.60;99.50
51021;DHT22;38907;45.562;8.856;2023-09-07T16:28:04;27.40;99.50
51021;DHT22;38907;45.562;8.856;2023-09-07T16:33:08;27.30;99.90
51021;DHT22;38907;45.562;8.856;2023-09-07T16:38:10;27.20;99.90
51021;DHT22;38907;45.562;8.856;2023-09-07T16:43:12;27.10;99.90
51021;DHT22;38907;45.562;8.856;2023-09-07T16:48:15;26.80;99.90
51021;DHT22;38907;45.562;8.856;2023-09-07T16:53:18;26.70;99.90
51021;DHT22;38907;45.562;8.856;2023-09-07T16:58:20;26.60;99.90
51021;DHT22;38907;45.562;8.856;2023-09-07T17:03:24;26.50;99.90
51021;DHT22;38907;45.562;8.856;2023-09-07T17:08:26;26.50;99.90
51021;DHT22;38907;45.562;8.856;2023-09-07T17:13:29;26.40;99.90
51021;DHT22;38907;45.562;8.856;2023-09-07T17:18:32;26.30;99.90
51021;DHT22;38907;45.562;8.856;2023-09-07T17:23:34;26.20;99.90
51021;DHT22;38907;45.562;8.856;2023-09-07T17:28:36;26.00;99.90
51021;DHT22;38907;45.562;8.856;2023-09-07T17:33:40;25.90;99.90
51021;DHT22;38907;45.562;8.856;2023-09-07T17:38:42;25.80;99.90
51021;DHT22;38907;45.562;8.856;2023-09-07T17:43:45;25.70;99.90
51021;DHT22;38907;45.562;8.856;2023-09-07T17:48:49;25.60;99.90
51021;DHT22;38907;45.562;8.856;2023-09-07T17:53:52;25.50;99.90
51021;DHT22;38907;45.562;8.856;2023-09-07T17:58:54;25.30;99.90
51021;DHT22;38907;45.562;8.856;2023-09-07T18:03:57;25.20;99.90
51021;DHT22;38907;45.562;8.856;2023-09-07T18:08:59;25.00;99.90
51021;DHT22;38907;45.562;8.856;2023-09-07T18:14:01;25.00;99.90
51021;DHT22;38907;45.562;8.856;2023-09-07T18:19:04;24.90;99.90
51021;DHT22;38907;45.562;8.856;2023-09-07T18:24:06;24.90;99.90
51021;DHT22;38907;45.562;8.856;2023-09-07T18:29:08;24.80;99.90
51021;DHT22;38907;45.562;8.856;2023-09-07T18:34:12;24.80;99.90
51021;DHT22;38907;45.562;8.856;2023-09-07T18:39:14;24.60;99.90
51021;DHT22;38907;45.562;8.856;2023-09-07T18:44:16;24.50;99.90
51021;DHT22;38907;45.562;8.856;2023-09-07T18:49:19;24.40;99.90
51021;DHT22;38907;45.562;8.856;2023-09-07T18:54:21;24.40;99.90
51021;DHT22;38907;45.562;8.856;2023-09-07T18:59:23;24.30;99.90
51021;DHT22;38907;45.562;8.856;2023-09-07T19:04:27;24.20;99.90
51021;DHT22;38907;45.562;8.856;2023-09-07T19:09:32;24.20;99.90
